createdAt,value
2019-04-10T00:05:01.196Z,9.40
2019-04-10T00:07:50.623Z,10.55
2019-04-10T00:10:40.255Z,10.26
2019-04-10T00:13:30.944Z,10.40
2019-04-10T00:16:21.046Z,8.75
2019-04-10T00:19:11.030Z,10.34
2019-04-10T00:21:59.869Z,10.34
2019-04-10T00:24:48.702Z,10.11
2019-04-10T00:27:37.485Z,8.98
2019-04-10T00:30:27.088Z,10.20
2019-04-10T00:33:16.809Z,10.32
2019-04-10T00:36:05.856Z,10.14
2019-04-10T00:38:56.110Z,10.17
2019-04-10T00:41:44.932Z,10.18
2019-04-10T00:44:33.712Z,10.08
2019-04-10T00:47:23.241Z,10.18
2019-04-10T00:50:13.082Z,10.06
2019-04-10T00:52:54.725Z,9.04
2019-04-10T00:55:44.018Z,10.00
2019-04-10T00:58:34.026Z,9.19
2019-04-10T01:01:23.620Z,8.40
2019-04-10T01:04:13.992Z,9.77
2019-04-10T01:07:04.302Z,9.67
2019-04-10T01:09:53.451Z,9.70
2019-04-10T01:12:44.000Z,9.66
2019-04-10T01:15:34.509Z,8.14
2019-04-10T01:18:24.730Z,9.43
2019-04-10T01:21:32.602Z,7.97
2019-04-10T01:27:15.992Z,9.45
2019-04-10T01:30:26.975Z,9.15
2019-04-10T01:36:23.565Z,9.05
2019-04-10T01:42:22.794Z,7.45
2019-04-10T01:45:13.299Z,9.01
2019-04-10T01:48:03.741Z,8.93
2019-04-10T01:50:53.568Z,8.79
2019-04-10T01:53:35.640Z,8.70
2019-04-10T01:56:30.203Z,7.71
2019-04-10T02:05:24.792Z,8.68
2019-04-10T02:08:16.080Z,7.14
2019-04-10T02:11:04.881Z,8.58
2019-04-10T02:13:54.095Z,8.19
2019-04-10T02:16:43.244Z,6.88
2019-04-10T02:19:34.327Z,6.96
2019-04-10T02:22:24.598Z,8.43
2019-04-10T02:25:15.692Z,8.37
2019-04-10T02:28:05.080Z,8.40
2019-04-10T02:30:54.487Z,8.35
2019-04-10T02:33:44.390Z,7.87
2019-04-10T02:36:34.416Z,7.08
2019-04-10T02:39:32.368Z,8.22
2019-04-10T02:42:14.401Z,8.21
2019-04-10T02:45:26.002Z,7.64
2019-04-10T02:48:17.084Z,8.20
2019-04-10T02:51:07.655Z,8.04
2019-04-10T02:53:50.221Z,8.18
2019-04-10T02:56:40.935Z,6.34
2019-04-10T02:59:31.102Z,8.14
2019-04-10T03:02:20.284Z,6.42
2019-04-10T03:05:10.783Z,7.94
2019-04-10T03:08:01.202Z,7.85
2019-04-10T03:10:55.845Z,8.01
2019-04-10T03:13:40.602Z,7.88
2019-04-10T03:16:29.395Z,8.01
2019-04-10T03:19:19.119Z,7.98
2019-04-10T03:22:09.134Z,7.81
2019-04-10T03:25:00.244Z,7.85
2019-04-10T03:27:50.373Z,7.70
2019-04-10T03:30:41.528Z,7.73
2019-04-10T03:33:52.177Z,6.82
2019-04-10T03:39:36.320Z,7.61
2019-04-10T03:42:25.332Z,6.90
2019-04-10T03:48:10.183Z,7.55
2019-04-10T03:50:58.983Z,6.50
2019-04-10T03:53:40.559Z,7.49
2019-04-10T03:56:29.718Z,7.55
2019-04-10T03:59:20.191Z,7.48
2019-04-10T04:02:11.550Z,7.40
2019-04-10T04:05:00.881Z,7.43
2019-04-10T04:07:50.657Z,7.36
2019-04-10T04:10:40.454Z,7.32
2019-04-10T04:13:31.293Z,7.22
2019-04-10T04:16:21.227Z,7.23
2019-04-10T04:19:10.182Z,7.16
2019-04-10T04:21:58.915Z,7.07
2019-04-10T04:24:48.210Z,7.24
2019-04-10T04:27:38.217Z,7.21
2019-04-10T04:30:27.016Z,5.42
2019-04-10T04:33:15.843Z,7.21
2019-04-10T04:36:04.631Z,7.00
2019-04-10T04:38:53.415Z,6.97
2019-04-10T04:41:42.277Z,5.42
2019-04-10T04:44:31.152Z,6.97
2019-04-10T04:47:19.942Z,6.92
2019-04-10T04:50:09.761Z,6.63
2019-04-10T04:53:00.378Z,6.82
2019-04-10T04:55:43.000Z,6.64
2019-04-10T04:58:31.803Z,4.90
2019-04-10T05:01:21.119Z,6.67
2019-04-10T05:04:11.464Z,6.64
2019-04-10T05:07:00.244Z,6.66
2019-04-10T05:09:49.072Z,6.60
2019-04-10T05:12:39.549Z,5.98
2019-04-10T05:15:29.050Z,5.73
2019-04-10T05:18:19.083Z,6.63
2019-04-10T05:21:10.611Z,6.78
2019-04-10T05:24:00.189Z,6.82
2019-04-10T05:26:49.143Z,6.85
2019-04-10T05:29:39.487Z,5.80
2019-04-10T05:32:28.273Z,5.83
2019-04-10T05:35:17.310Z,7.09
2019-04-10T05:38:08.044Z,5.33
2019-04-10T05:40:59.166Z,6.85
2019-04-10T05:43:48.893Z,7.24
2019-04-10T05:46:39.099Z,6.97
2019-04-10T05:49:28.911Z,7.23
2019-04-10T05:52:18.431Z,7.13
2019-04-10T05:55:00.232Z,7.25
2019-04-10T05:57:49.082Z,7.41
2019-04-10T06:00:37.820Z,7.55
2019-04-10T06:03:26.622Z,6.99
2019-04-10T06:06:16.572Z,7.36
2019-04-10T06:09:26.936Z,7.50
2019-04-10T06:12:15.674Z,5.99
2019-04-10T06:15:26.518Z,7.82
2019-04-10T06:18:15.356Z,7.73
2019-04-10T06:21:05.077Z,7.85
2019-04-10T06:23:56.673Z,8.01
2019-04-10T06:26:45.896Z,7.78
2019-04-10T06:29:37.113Z,7.93
2019-04-10T06:32:27.471Z,8.07
2019-04-10T06:35:17.045Z,6.37
2019-04-10T06:38:06.418Z,7.92
2019-04-10T06:40:56.338Z,6.97
2019-04-10T06:43:45.373Z,8.03
2019-04-10T06:46:37.975Z,8.12
2019-04-10T06:49:26.960Z,7.15
2019-04-10T06:52:16.738Z,6.99
2019-04-10T06:55:00.734Z,8.73
2019-04-10T06:57:55.791Z,9.01
2019-04-10T07:00:41.044Z,8.95
2019-04-10T07:03:45.880Z,9.07
2019-04-10T07:06:22.805Z,8.74
2019-04-10T07:12:10.800Z,9.48
2019-04-10T07:14:59.776Z,8.29
2019-04-10T07:17:51.083Z,9.75
2019-04-10T07:20:40.595Z,9.97
2019-04-10T07:23:31.886Z,10.18
2019-04-10T07:26:30.975Z,9.90
2019-04-10T07:29:11.057Z,10.30
2019-04-10T07:32:00.922Z,10.47
2019-04-10T07:34:50.784Z,10.62
2019-04-10T07:37:40.462Z,10.69
2019-04-10T07:40:33.858Z,10.15
2019-04-10T07:43:24.484Z,10.95
2019-04-10T07:46:10.518Z,10.83
2019-04-10T07:48:59.294Z,10.95
2019-04-10T07:51:49.146Z,10.98
2019-04-10T07:54:39.602Z,10.94
2019-04-10T07:57:22.513Z,10.35
2019-04-10T08:03:21.120Z,11.34
2019-04-10T08:06:10.994Z,11.58
2019-04-10T08:09:01.288Z,11.63
2019-04-10T08:11:51.045Z,11.48
2019-04-10T08:14:42.025Z,11.41
2019-04-10T08:17:32.476Z,10.74
2019-04-10T08:20:22.472Z,12.46
2019-04-10T08:23:12.214Z,12.23
2019-04-10T08:26:01.770Z,12.36
2019-04-10T08:29:01.710Z,12.58
2019-04-10T08:31:50.515Z,11.77
2019-04-10T08:34:40.049Z,13.15
2019-04-10T08:37:29.863Z,11.32
2019-04-10T08:40:19.103Z,12.54
2019-04-10T08:43:09.156Z,12.88
2019-04-10T08:45:58.907Z,11.65
2019-04-10T08:48:49.571Z,12.74
2019-04-10T08:51:39.461Z,13.18
2019-04-10T08:54:29.501Z,13.13
2019-04-10T08:57:12.222Z,12.67
2019-04-10T09:00:00.989Z,11.82
2019-04-10T09:02:50.538Z,13.38
2019-04-10T09:05:40.299Z,13.33
2019-04-10T09:08:29.102Z,13.29
2019-04-10T09:11:24.658Z,12.39
2019-04-10T09:14:08.653Z,13.94
2019-04-10T09:16:58.934Z,13.82
2019-04-10T09:19:47.732Z,13.34
2019-04-10T09:22:57.177Z,12.33
2019-04-10T09:25:27.130Z,12.88
2019-04-10T09:28:16.168Z,12.90
2019-04-10T09:31:07.382Z,13.05
2019-04-10T09:33:56.935Z,13.10
2019-04-10T09:36:45.778Z,11.93
2019-04-10T09:39:35.632Z,13.27
2019-04-10T09:42:44.203Z,13.31
2019-04-10T09:45:33.054Z,13.34
2019-04-10T09:48:22.248Z,13.67
2019-04-10T09:51:15.315Z,13.61
2019-04-10T09:54:03.607Z,13.41
2019-04-10T09:56:46.394Z,13.70
2019-04-10T09:59:36.906Z,13.24
2019-04-10T10:02:25.744Z,14.61
2019-04-10T10:05:14.778Z,14.11
2019-04-10T10:08:04.313Z,13.35
2019-04-10T10:10:54.127Z,13.98
2019-04-10T10:16:50.673Z,14.87
2019-04-10T10:19:40.712Z,13.43
2019-04-10T10:22:30.922Z,13.69
2019-04-10T10:25:21.524Z,13.47
2019-04-10T10:31:06.195Z,12.49
2019-04-10T10:33:56.542Z,13.34
2019-04-10T10:36:48.939Z,14.06
2019-04-10T10:39:37.193Z,14.49
2019-04-10T10:42:25.969Z,13.98
2019-04-10T10:45:15.085Z,14.48
2019-04-10T10:48:03.896Z,14.40
2019-04-10T10:50:53.326Z,14.66
2019-04-10T10:53:44.063Z,14.95
2019-04-10T10:56:34.165Z,15.06
2019-04-10T10:59:25.228Z,13.56
2019-04-10T11:02:14.781Z,14.55
2019-04-10T11:05:06.884Z,15.76
2019-04-10T11:07:55.683Z,16.10
2019-04-10T11:10:49.146Z,16.38
2019-04-10T11:13:35.113Z,14.91
2019-04-10T11:16:24.840Z,16.43
2019-04-10T11:19:15.356Z,16.03
2019-04-10T11:22:26.546Z,15.89
2019-04-10T11:25:16.616Z,16.45
2019-04-10T11:28:06.037Z,16.70
2019-04-10T11:30:56.171Z,16.84
2019-04-10T11:33:51.370Z,16.67
2019-04-10T11:36:37.000Z,17.63
2019-04-10T11:39:28.287Z,17.61
2019-04-10T11:42:16.316Z,17.00
2019-04-10T11:44:59.347Z,15.51
2019-04-10T11:47:50.751Z,15.52
2019-04-10T11:50:38.750Z,17.03
2019-04-10T11:53:27.772Z,17.30
2019-04-10T11:56:18.911Z,17.75
2019-04-10T11:59:09.817Z,17.58
2019-04-10T12:02:02.656Z,17.03
2019-04-10T12:13:19.845Z,17.25
2019-04-10T12:16:10.206Z,18.49
2019-04-10T12:18:59.226Z,18.86
2019-04-10T12:21:50.376Z,17.44
2019-04-10T12:24:40.535Z,18.19
2019-04-10T12:27:49.565Z,18.29
2019-04-10T12:30:39.418Z,17.62
2019-04-10T12:33:29.661Z,16.68
2019-04-10T12:36:20.502Z,16.87
2019-04-10T12:39:10.407Z,16.57
2019-04-10T12:41:59.676Z,17.49
2019-04-10T12:44:41.225Z,18.16
2019-04-10T12:47:30.912Z,18.44
2019-04-10T12:50:20.765Z,17.90
2019-04-10T12:53:09.674Z,19.28
2019-04-10T12:55:59.743Z,20.12
2019-04-10T12:58:49.194Z,19.77
2019-04-10T13:01:38.582Z,19.81
2019-04-10T13:04:28.619Z,19.15
2019-04-10T13:07:17.532Z,19.85
2019-04-10T13:10:27.449Z,20.97
2019-04-10T13:13:17.951Z,19.31
2019-04-10T13:16:07.803Z,18.67
2019-04-10T13:18:57.583Z,19.61
2019-04-10T13:21:46.720Z,20.91
2019-04-10T13:24:37.561Z,21.20
2019-04-10T13:27:28.576Z,21.90
2019-04-10T13:30:18.698Z,21.47
2019-04-10T13:33:08.888Z,21.53
2019-04-10T13:35:57.770Z,20.97
2019-04-10T13:38:46.631Z,20.96
2019-04-10T13:41:36.665Z,20.73
2019-04-10T13:44:19.413Z,20.42
2019-04-10T13:47:09.063Z,19.91
2019-04-10T13:50:00.019Z,19.45
2019-04-10T13:55:59.017Z,19.99
2019-04-10T13:58:49.313Z,20.03
2019-04-10T14:01:38.194Z,19.67
2019-04-10T14:04:27.243Z,19.61
2019-04-10T14:10:17.374Z,18.72
2019-04-10T14:16:14.796Z,21.50
2019-04-10T14:19:06.206Z,23.05
2019-04-10T14:21:57.475Z,22.93
2019-04-10T14:24:48.977Z,22.73
2019-04-10T14:27:38.504Z,21.46
2019-04-10T14:30:47.312Z,20.46
2019-04-10T14:33:36.150Z,20.34
2019-04-10T14:36:25.032Z,20.58
2019-04-10T14:42:42.674Z,19.33
2019-04-10T14:45:25.603Z,19.09
2019-04-10T14:48:33.640Z,18.56
2019-04-10T14:51:22.504Z,17.63
2019-04-10T14:54:11.439Z,18.56
2019-04-10T14:57:00.240Z,18.07
2019-04-10T14:59:49.313Z,17.07
2019-04-10T15:02:39.789Z,18.24
2019-04-10T15:05:30.281Z,17.99
2019-04-10T15:08:38.094Z,20.03
2019-04-10T15:11:26.882Z,20.39
2019-04-10T15:13:57.228Z,22.23
2019-04-10T15:16:53.406Z,21.71
2019-04-10T15:19:37.456Z,21.73
2019-04-10T15:22:27.328Z,21.66
2019-04-10T15:25:23.411Z,20.30
2019-04-10T15:28:12.207Z,19.77
2019-04-10T15:31:01.402Z,18.81
2019-04-10T15:33:51.845Z,19.53
2019-04-10T15:36:43.587Z,18.75
2019-04-10T15:39:36.264Z,18.47
2019-04-10T15:45:10.656Z,17.94
2019-04-10T15:48:00.504Z,17.96
2019-04-10T15:50:50.008Z,17.63
2019-04-10T15:53:38.840Z,17.14
2019-04-10T15:56:27.719Z,15.96
2019-04-10T15:59:16.524Z,17.01
2019-04-10T16:02:05.704Z,17.01
2019-04-10T16:04:55.902Z,17.20
2019-04-10T16:07:44.890Z,17.51
2019-04-10T16:10:55.119Z,18.51
2019-04-10T16:20:02.252Z,18.11
2019-04-10T16:23:10.154Z,17.67
2019-04-10T16:25:58.882Z,18.86
2019-04-10T16:28:47.687Z,18.23
2019-04-10T16:31:37.674Z,17.98
2019-04-10T16:37:24.259Z,16.87
2019-04-10T16:40:33.896Z,16.71
2019-04-10T16:43:24.396Z,15.54
2019-04-10T16:46:07.249Z,18.09
2019-04-10T16:48:56.091Z,18.60
2019-04-10T16:51:44.926Z,18.25
2019-04-10T16:54:33.706Z,17.19
2019-04-10T16:57:22.701Z,16.16
2019-04-10T17:03:42.099Z,16.45
2019-04-10T17:06:32.521Z,18.40
2019-04-10T17:12:42.114Z,18.37
2019-04-10T17:15:32.269Z,19.65
2019-04-10T17:18:24.378Z,19.51
2019-04-10T17:21:13.122Z,18.31
2019-04-10T17:26:59.454Z,16.79
2019-04-10T17:29:49.364Z,18.14
2019-04-10T17:35:33.719Z,17.69
2019-04-10T17:38:24.514Z,17.86
2019-04-10T17:41:33.359Z,17.53
2019-04-10T17:44:23.412Z,15.80
2019-04-10T17:47:09.463Z,16.02
2019-04-10T17:49:56.305Z,14.51
2019-04-10T17:52:45.257Z,14.42
2019-04-10T17:55:35.738Z,14.56
2019-04-10T17:58:26.128Z,14.11
2019-04-10T18:04:10.552Z,13.69
2019-04-10T18:06:59.637Z,13.42
2019-04-10T18:09:50.735Z,13.27
2019-04-10T18:12:40.666Z,12.26
2019-04-10T18:15:30.939Z,12.63
2019-04-10T18:18:39.945Z,12.65
2019-04-10T18:21:29.250Z,11.15
2019-04-10T18:24:18.033Z,12.55
2019-04-10T18:27:07.874Z,12.46
2019-04-10T18:29:57.374Z,12.32
2019-04-10T18:32:46.168Z,12.11
2019-04-10T18:38:43.821Z,11.94
2019-04-10T18:41:33.315Z,11.89
2019-04-10T18:44:22.764Z,11.88
2019-04-10T18:47:13.149Z,11.77
2019-04-10T18:50:22.435Z,11.75
2019-04-10T18:56:18.941Z,11.43
2019-04-10T18:59:26.896Z,11.31
2019-04-10T19:02:34.914Z,10.85
2019-04-10T19:05:43.670Z,11.13
2019-04-10T19:09:05.012Z,11.16
2019-04-10T19:14:50.833Z,10.95
2019-04-10T19:17:41.934Z,10.84
2019-04-10T19:20:51.553Z,10.70
2019-04-10T19:23:41.757Z,10.64
2019-04-10T19:35:19.890Z,10.38
2019-04-10T19:38:09.324Z,10.36
2019-04-10T19:40:58.812Z,9.09
2019-04-10T19:43:48.542Z,10.31
2019-04-10T19:46:38.299Z,10.33
2019-04-10T19:49:19.754Z,10.26
2019-04-10T19:51:49.182Z,10.19
2019-04-10T19:54:38.768Z,10.09
2019-04-10T19:57:47.814Z,9.94
2019-04-10T20:03:46.056Z,9.94
2019-04-10T20:06:34.833Z,9.77
2019-04-10T20:15:34.157Z,9.61
2019-04-10T20:18:24.530Z,8.66
2019-04-10T20:21:14.111Z,9.66
2019-04-10T20:24:02.886Z,9.58
2019-04-10T20:26:51.825Z,9.61
2019-04-10T20:32:52.423Z,9.29
2019-04-10T20:35:42.520Z,9.47
2019-04-10T20:38:33.492Z,8.09
2019-04-10T20:41:23.094Z,7.90
2019-04-10T20:44:11.884Z,9.44
2019-04-10T20:46:54.654Z,9.37
2019-04-10T20:49:44.629Z,9.26
2019-04-10T20:52:34.641Z,7.93
2019-04-10T20:55:25.741Z,9.18
2019-04-10T20:58:15.492Z,9.14
2019-04-10T21:01:06.059Z,9.10
2019-04-10T21:03:56.687Z,7.30
2019-04-10T21:06:46.623Z,8.58
2019-04-10T21:09:36.163Z,8.79
2019-04-10T21:12:25.925Z,8.81
2019-04-10T21:15:14.710Z,8.72
2019-04-10T21:18:04.626Z,8.60
2019-04-10T21:20:54.002Z,8.74
2019-04-10T21:23:42.787Z,8.72
2019-04-10T21:26:32.472Z,8.67
2019-04-10T21:29:42.078Z,7.16
2019-04-10T21:32:52.919Z,7.09
2019-04-10T21:38:40.705Z,8.53
2019-04-10T21:41:24.146Z,8.54
2019-04-10T21:47:21.619Z,8.35
2019-04-10T21:50:11.391Z,7.89
2019-04-10T21:53:00.186Z,6.80
2019-04-10T21:55:48.976Z,8.44
2019-04-10T21:58:38.806Z,8.31
2019-04-10T22:01:28.479Z,8.02
2019-04-10T22:07:32.325Z,7.83
2019-04-10T22:13:30.571Z,7.71
2019-04-10T22:19:28.755Z,6.05
2019-04-10T22:22:18.147Z,7.39
2019-04-10T22:30:52.669Z,7.24
2019-04-10T22:33:42.582Z,7.09
2019-04-10T22:36:33.141Z,5.87
2019-04-10T22:39:23.105Z,5.57
2019-04-10T22:42:06.004Z,7.38
2019-04-10T22:44:55.908Z,7.26
2019-04-10T22:47:45.515Z,7.23
2019-04-10T22:50:36.470Z,7.08
2019-04-10T22:53:26.465Z,7.12
2019-04-10T22:56:15.243Z,6.98
2019-04-10T22:59:04.035Z,7.13
2019-04-10T23:02:01.365Z,7.14
2019-04-10T23:04:43.388Z,7.09
2019-04-10T23:07:32.167Z,7.18
2019-04-10T23:10:21.234Z,5.60
2019-04-10T23:19:34.288Z,6.85
2019-04-10T23:22:23.121Z,5.39
2019-04-10T23:25:11.998Z,6.96
2019-04-10T23:28:01.102Z,5.46
2019-04-10T23:30:51.300Z,5.55
2019-04-10T23:36:48.657Z,6.77
2019-04-10T23:39:38.621Z,6.87
2019-04-10T23:42:28.330Z,5.34
2019-04-10T23:45:13.515Z,6.89
2019-04-10T23:48:02.379Z,5.53
2019-04-10T23:50:51.460Z,4.95
2019-04-10T23:53:41.632Z,5.05
2019-04-10T23:56:31.451Z,6.17
2019-04-10T23:59:20.993Z,6.66
